createdAt,value
2023-02-23T00:00:14.000Z,9.44
2023-02-23T00:01:14.150Z,9.66
2023-02-23T00:02:14.055Z,8.89
2023-02-23T00:03:14.040Z,8.81
2023-02-23T00:04:14.019Z,8.09
2023-02-23T00:05:14.025Z,9.36
2023-02-23T00:06:14.052Z,10.14
2023-02-23T00:07:14.064Z,8.59
2023-02-23T00:08:14.057Z,8.11
2023-02-23T00:09:14.081Z,8.37
2023-02-23T00:10:14.072Z,8.97
2023-02-23T00:11:14.097Z,9.13
2023-02-23T00:12:14.102Z,8.23
2023-02-23T00:13:14.109Z,9.49
2023-02-23T00:14:14.182Z,9.25
2023-02-23T00:15:14.173Z,9.11
2023-02-23T00:16:14.146Z,8.67
2023-02-23T00:17:14.689Z,8.97
2023-02-23T00:18:14.206Z,9.83
2023-02-23T00:19:14.287Z,8.17
2023-02-23T00:20:14.205Z,9.04
2023-02-23T00:21:14.190Z,8.85
2023-02-23T00:22:14.224Z,8.87
2023-02-23T00:23:14.231Z,8.62
2023-02-23T00:24:14.261Z,8.54
2023-02-23T00:25:14.288Z,7.98
2023-02-23T00:26:14.260Z,8.71
2023-02-23T00:27:14.276Z,9.22
2023-02-23T00:28:14.284Z,9.71
2023-02-23T00:29:14.299Z,8.50
2023-02-23T00:30:14.324Z,8.57
2023-02-23T00:31:14.342Z,9.49
2023-02-23T00:32:14.427Z,9.07
2023-02-23T00:33:14.377Z,8.35
2023-02-23T00:34:14.367Z,8.04
2023-02-23T00:35:14.378Z,8.58
2023-02-23T00:36:14.392Z,8.55
2023-02-23T00:37:14.435Z,8.53
2023-02-23T00:38:14.439Z,8.19
2023-02-23T00:39:14.437Z,8.61
2023-02-23T00:40:14.444Z,9.04
2023-02-23T00:41:14.582Z,9.00
2023-02-23T00:42:14.491Z,8.16
2023-02-23T00:43:14.520Z,8.36
2023-02-23T00:44:14.507Z,8.85
2023-02-23T00:45:14.538Z,9.14
2023-02-23T00:46:14.539Z,8.69
2023-02-23T00:47:14.535Z,8.13
2023-02-23T00:48:14.555Z,8.32
2023-02-23T00:49:14.579Z,9.18
2023-02-23T00:50:14.573Z,7.87
2023-02-23T00:51:14.596Z,7.68
2023-02-23T00:52:14.606Z,8.65
2023-02-23T00:53:14.635Z,8.09
2023-02-23T00:54:14.626Z,8.35
2023-02-23T00:55:14.654Z,8.56
2023-02-23T00:56:14.663Z,8.27
2023-02-23T00:57:14.651Z,8.73
2023-02-23T00:58:14.675Z,8.18
2023-02-23T00:59:14.675Z,7.67
2023-02-23T01:00:14.691Z,7.73
2023-02-23T01:01:14.719Z,8.21
2023-02-23T01:02:14.760Z,7.77
2023-02-23T01:03:14.713Z,8.50
2023-02-23T01:04:14.711Z,8.95
2023-02-23T01:05:14.769Z,8.44
2023-02-23T01:06:14.859Z,8.22
2023-02-23T01:07:14.870Z,8.58
2023-02-23T01:08:14.884Z,8.69
2023-02-23T01:09:14.966Z,8.26
2023-02-23T01:10:15.056Z,7.69
2023-02-23T02:45:16.416Z,7.35
2023-02-23T02:46:16.471Z,7.38
2023-02-23T02:47:16.488Z,7.80
2023-02-23T02:48:16.468Z,7.44
2023-02-23T02:49:16.480Z,7.24
2023-02-23T02:50:16.547Z,7.46
2023-02-23T02:54:16.552Z,7.09
2023-02-23T02:55:16.597Z,7.41
2023-02-23T02:56:16.624Z,7.69
2023-02-23T02:57:16.596Z,7.19
2023-02-23T02:58:16.637Z,6.52
2023-02-23T02:59:16.634Z,7.11
2023-02-23T03:26:53.289Z,6.95
2023-02-23T03:27:53.309Z,6.31
2023-02-23T03:28:53.297Z,6.87
2023-02-23T03:29:53.268Z,7.10
2023-02-23T03:30:53.333Z,7.09
2023-02-23T03:31:53.351Z,6.98
2023-02-23T03:32:53.234Z,6.30
2023-02-23T03:33:53.273Z,6.27
2023-02-23T03:34:53.252Z,5.92
2023-02-23T03:35:53.251Z,6.61
2023-02-23T03:36:53.213Z,6.39
2023-02-23T03:37:53.226Z,7.07
2023-02-23T03:38:53.196Z,6.98
2023-02-23T03:39:53.215Z,6.30
2023-02-23T03:40:53.208Z,7.36
2023-02-23T03:41:53.185Z,7.50
2023-02-23T03:42:53.196Z,6.75
2023-02-23T03:43:53.203Z,6.56
2023-02-23T03:44:53.194Z,6.98
2023-02-23T03:45:53.221Z,7.86
2023-02-23T03:46:53.154Z,6.48
2023-02-23T03:47:53.174Z,6.87
2023-02-23T03:48:53.167Z,6.67
2023-02-23T03:49:53.172Z,6.58
2023-02-23T03:50:53.176Z,6.41
2023-02-23T03:51:53.130Z,6.91
2023-02-23T03:52:53.110Z,6.78
2023-02-23T03:53:53.136Z,7.34
2023-02-23T03:54:53.111Z,7.40
2023-02-23T03:55:53.102Z,6.14
2023-02-23T03:56:53.090Z,7.20
2023-02-23T03:57:53.095Z,7.11
2023-02-23T03:58:53.095Z,7.17
2023-02-23T03:59:53.079Z,6.57
2023-02-23T04:00:53.140Z,6.80
2023-02-23T04:01:53.053Z,6.94
2023-02-23T04:02:53.057Z,7.10
2023-02-23T04:03:53.108Z,6.84
2023-02-23T04:04:53.068Z,7.05
2023-02-23T04:05:53.046Z,6.98
2023-02-23T04:06:53.014Z,6.57
2023-02-23T04:07:53.062Z,7.34
2023-02-23T04:08:53.051Z,7.44
2023-02-23T04:09:53.073Z,6.67
2023-02-23T04:10:53.142Z,7.16
2023-02-23T04:11:53.146Z,7.19
2023-02-23T04:12:53.158Z,6.32
2023-02-23T04:13:53.220Z,7.06
2023-02-23T04:14:53.214Z,6.74
2023-02-23T04:15:53.205Z,6.96
2023-02-23T04:16:53.237Z,7.10
2023-02-23T04:17:53.282Z,7.18
2023-02-23T04:18:53.284Z,6.93
2023-02-23T04:19:53.316Z,7.95
2023-02-23T04:20:53.381Z,6.62
2023-02-23T04:21:53.356Z,6.77
2023-02-23T04:22:53.385Z,7.04
2023-02-23T04:23:53.384Z,7.24
2023-02-23T04:24:53.439Z,7.20
2023-02-23T04:25:53.465Z,7.41
2023-02-23T04:26:53.451Z,6.88
2023-02-23T04:27:53.496Z,7.25
2023-02-23T04:28:53.608Z,7.81
2023-02-23T04:29:53.540Z,6.90
2023-02-23T04:30:53.624Z,8.09
2023-02-23T04:31:53.638Z,7.44
2023-02-23T04:32:53.604Z,7.31
2023-02-23T04:33:53.625Z,7.38
2023-02-23T04:34:53.643Z,7.90
2023-02-23T04:35:53.666Z,6.65
2023-02-23T04:36:53.683Z,7.64
2023-02-23T04:37:53.722Z,7.55
2023-02-23T04:38:53.740Z,6.92
2023-02-23T04:39:53.740Z,7.37
2023-02-23T04:40:53.770Z,7.52
2023-02-23T04:41:53.806Z,7.35
2023-02-23T04:42:53.802Z,7.26
2023-02-23T04:43:53.794Z,7.49
2023-02-23T04:44:53.812Z,7.77
2023-02-23T04:45:53.940Z,7.03
2023-02-23T04:46:53.885Z,7.41
2023-02-23T04:47:53.862Z,7.64
2023-02-23T04:48:53.870Z,6.78
2023-02-23T04:49:53.899Z,6.75
2023-02-23T04:50:53.911Z,7.40
2023-02-23T04:51:53.930Z,7.42
2023-02-23T04:52:53.943Z,6.93
2023-02-23T04:53:53.946Z,7.77
2023-02-23T04:54:53.940Z,7.84
2023-02-23T04:55:53.957Z,7.57
2023-02-23T04:56:53.968Z,6.90
2023-02-23T04:57:53.939Z,7.79
2023-02-23T04:58:54.000Z,6.25
2023-02-23T04:59:53.988Z,7.32
2023-02-23T05:00:53.988Z,7.13
2023-02-23T05:01:53.995Z,8.07
2023-02-23T05:02:53.998Z,7.43
2023-02-23T05:03:54.005Z,7.19
2023-02-23T05:04:54.029Z,7.78
2023-02-23T05:05:54.020Z,7.40
2023-02-23T05:06:54.027Z,6.87
2023-02-23T05:07:54.040Z,7.39
2023-02-23T05:08:54.018Z,7.11
2023-02-23T05:09:54.018Z,7.55
2023-02-23T05:10:54.064Z,6.89
2023-02-23T05:11:54.043Z,6.91
2023-02-23T05:12:54.054Z,7.52
2023-02-23T05:13:54.052Z,6.72
2023-02-23T05:14:54.049Z,7.22
2023-02-23T05:15:54.104Z,7.69
2023-02-23T05:16:54.063Z,7.58
2023-02-23T05:17:54.062Z,6.83
2023-02-23T05:18:54.096Z,6.77
2023-02-23T05:19:54.041Z,6.81
2023-02-23T05:20:54.064Z,7.31
2023-02-23T05:21:54.065Z,7.26
2023-02-23T05:22:54.091Z,7.50
2023-02-23T05:23:54.089Z,7.04
2023-02-23T05:24:57.094Z,7.20
2023-02-23T05:25:54.096Z,6.85
2023-02-23T05:26:54.066Z,6.63
2023-02-23T05:27:54.085Z,7.18
2023-02-23T05:28:54.041Z,7.24
2023-02-23T05:29:54.044Z,6.78
2023-02-23T05:30:54.126Z,7.17
2023-02-23T05:31:54.138Z,6.88
2023-02-23T05:32:54.043Z,6.97
2023-02-23T05:33:54.000Z,7.06
2023-02-23T05:34:54.050Z,7.53
2023-02-23T05:35:54.030Z,7.55
2023-02-23T05:36:54.031Z,7.02
2023-02-23T05:37:53.994Z,7.05
2023-02-23T05:38:54.017Z,6.76
2023-02-23T05:39:53.992Z,7.47
2023-02-23T05:40:53.974Z,6.93
2023-02-23T05:41:53.953Z,7.11
2023-02-23T05:42:53.981Z,7.46
2023-02-23T05:43:53.973Z,7.68
2023-02-23T05:44:53.957Z,6.49
2023-02-23T05:45:54.027Z,6.91
2023-02-23T05:46:53.918Z,6.84
2023-02-23T05:47:53.938Z,7.33
2023-02-23T05:48:53.913Z,8.01
2023-02-23T05:49:53.917Z,6.96
2023-02-23T05:50:53.920Z,7.45
2023-02-23T05:51:53.890Z,6.55
2023-02-23T05:52:53.932Z,7.45
2023-02-23T05:53:53.890Z,7.17
2023-02-23T05:54:53.866Z,6.49
2023-02-23T05:55:53.878Z,7.49
2023-02-23T06:01:01.250Z,6.74
2023-02-23T06:01:53.820Z,7.03
2023-02-23T06:46:01.574Z,9.32
2023-02-23T08:18:55.193Z,6.32
2023-02-23T08:19:55.270Z,6.92
2023-02-23T08:20:55.235Z,6.05
2023-02-23T08:21:55.246Z,6.44
2023-02-23T08:22:55.307Z,6.24
2023-02-23T08:23:55.299Z,7.16
2023-02-23T08:24:55.326Z,6.96
2023-02-23T08:25:55.375Z,6.65
2023-02-23T08:26:55.363Z,6.44
2023-02-23T08:28:55.447Z,6.93
2023-02-23T08:29:55.443Z,6.98
2023-02-23T08:30:55.592Z,7.15
2023-02-23T11:10:00.938Z,6.17
2023-02-23T11:15:00.662Z,6.86
2023-02-23T11:18:00.514Z,5.96
2023-02-23T11:19:00.751Z,6.75
2023-02-23T11:20:00.587Z,6.56
2023-02-23T11:21:00.609Z,5.64
2023-02-23T11:22:00.600Z,6.58
2023-02-23T11:23:09.562Z,5.95
2023-02-23T11:25:00.638Z,6.38
2023-02-23T11:26:00.629Z,5.55
2023-02-23T11:27:00.603Z,6.31
2023-02-23T11:28:00.583Z,6.62
2023-02-23T11:29:00.578Z,6.39
2023-02-23T11:30:00.544Z,6.20
2023-02-23T11:31:00.646Z,6.21
2023-02-23T11:32:00.654Z,5.98
2023-02-23T11:33:00.629Z,6.14
2023-02-23T11:34:00.640Z,5.70
2023-02-23T11:35:00.730Z,6.01
2023-02-23T11:36:00.775Z,6.36
2023-02-23T11:37:00.854Z,6.34
2023-02-23T11:38:00.886Z,6.86
2023-02-23T11:39:00.997Z,7.73
2023-02-23T11:40:01.405Z,7.71
2023-02-23T11:41:01.063Z,9.33
2023-02-23T11:42:01.079Z,9.70
2023-02-23T11:43:01.131Z,9.44
2023-02-23T11:44:01.176Z,9.83
2023-02-23T11:45:01.428Z,10.28
2023-02-23T11:46:01.276Z,11.33
2023-02-23T11:47:01.314Z,10.43
2023-02-23T11:48:01.292Z,10.03
2023-02-23T11:49:01.348Z,8.86
2023-02-23T11:50:01.413Z,8.97
2023-02-23T11:51:01.435Z,8.47
2023-02-23T11:52:01.430Z,8.73
2023-02-23T11:53:01.496Z,8.30
2023-02-23T11:54:01.551Z,8.99
2023-02-23T11:55:01.650Z,9.14
2023-02-23T11:56:01.675Z,7.58
2023-02-23T11:57:01.757Z,7.06
2023-02-23T11:58:01.812Z,7.61
2023-02-23T11:59:01.889Z,7.43
2023-02-23T12:00:01.977Z,7.94
2023-02-23T12:05:02.120Z,6.70
2023-02-23T12:06:02.102Z,6.76
2023-02-23T12:07:02.104Z,6.63
2023-02-23T12:08:02.185Z,7.78
2023-02-23T12:09:02.143Z,7.68
2023-02-23T12:12:02.206Z,8.31
2023-02-23T12:13:02.253Z,6.98
2023-02-23T12:14:02.227Z,7.10
2023-02-23T12:16:02.298Z,7.12
2023-02-23T12:18:02.317Z,7.10
2023-02-23T12:29:02.393Z,5.38
2023-02-23T13:09:03.234Z,5.99
2023-02-23T13:40:04.675Z,5.59
2023-02-23T15:14:18.363Z,7.66
2023-02-23T15:15:10.301Z,6.47
2023-02-23T15:16:09.282Z,5.94
2023-02-23T15:17:09.248Z,6.51
2023-02-23T15:18:09.241Z,6.55
2023-02-23T15:19:09.226Z,7.09
2023-02-23T15:20:17.376Z,5.97
2023-02-23T15:21:10.212Z,6.83
2023-02-23T17:49:16.474Z,8.16
2023-02-23T17:50:16.482Z,7.39
2023-02-23T17:51:16.464Z,8.14
2023-02-23T17:52:16.494Z,7.85
2023-02-23T17:53:16.490Z,8.12
2023-02-23T17:54:16.520Z,8.13
2023-02-23T17:55:16.566Z,8.54
2023-02-23T17:56:16.548Z,8.18
2023-02-23T17:57:16.581Z,8.78
2023-02-23T17:58:16.602Z,8.34
2023-02-23T17:59:16.603Z,9.03
2023-02-23T18:00:16.618Z,8.78
2023-02-23T18:01:16.733Z,8.77
2023-02-23T18:02:16.650Z,8.66
2023-02-23T18:03:16.678Z,8.87
2023-02-23T18:04:16.679Z,8.86
2023-02-23T18:05:16.677Z,8.51
2023-02-23T18:06:16.688Z,8.11
2023-02-23T18:07:16.698Z,9.33
2023-02-23T18:08:16.696Z,9.05
2023-02-23T18:09:16.732Z,8.77
2023-02-23T18:10:16.835Z,8.63
2023-02-23T18:11:16.722Z,9.15
2023-02-23T18:12:16.727Z,9.84
2023-02-23T18:13:16.747Z,7.63
2023-02-23T18:14:16.734Z,8.76
2023-02-23T18:15:16.750Z,8.81
2023-02-23T18:16:16.791Z,8.68
2023-02-23T18:17:16.771Z,8.38
2023-02-23T18:18:16.748Z,8.77
2023-02-23T18:19:16.743Z,9.31
2023-02-23T18:20:16.780Z,9.09
2023-02-23T18:21:16.756Z,8.21
2023-02-23T18:22:16.769Z,9.50
2023-02-23T18:23:16.799Z,9.09
2023-02-23T18:24:16.765Z,9.08
2023-02-23T18:25:16.774Z,9.40
2023-02-23T18:26:16.796Z,8.91
2023-02-23T18:27:16.861Z,8.84
2023-02-23T18:28:16.927Z,8.87
2023-02-23T18:29:16.980Z,8.96
2023-02-23T18:30:17.026Z,9.29
2023-02-23T18:31:17.226Z,8.98
2023-02-23T18:32:17.381Z,9.04
2023-02-23T18:33:17.347Z,8.66
2023-02-23T18:34:17.216Z,8.75
2023-02-23T18:35:17.219Z,9.68
2023-02-23T18:36:17.245Z,8.45
2023-02-23T18:37:17.246Z,8.25
2023-02-23T18:38:17.256Z,9.16
2023-02-23T18:39:17.278Z,9.31
2023-02-23T18:40:17.257Z,8.87
2023-02-23T18:41:17.247Z,9.13
2023-02-23T18:42:17.259Z,8.92
2023-02-23T18:43:17.244Z,8.80
2023-02-23T18:44:17.271Z,9.76
2023-02-23T18:45:17.287Z,10.54
2023-02-23T18:46:17.344Z,9.39
2023-02-23T18:47:17.322Z,9.41
2023-02-23T18:48:17.284Z,10.25
2023-02-23T18:49:17.270Z,10.76
2023-02-23T18:50:17.286Z,9.25
2023-02-23T18:51:17.511Z,10.43
2023-02-23T18:52:17.331Z,9.74
2023-02-23T18:53:17.313Z,9.60
2023-02-23T18:54:17.312Z,9.83
2023-02-23T18:55:17.618Z,9.21
2023-02-23T18:56:17.343Z,9.02
2023-02-23T18:57:17.342Z,9.60
2023-02-23T18:58:17.349Z,10.44
2023-02-23T18:59:17.321Z,9.41
2023-02-23T19:00:17.355Z,10.38
2023-02-23T19:01:17.455Z,10.61
2023-02-23T19:02:17.381Z,11.62
2023-02-23T19:03:17.390Z,10.11
2023-02-23T19:04:17.383Z,9.87
2023-02-23T19:05:18.554Z,10.16
2023-02-23T19:06:17.370Z,10.41
2023-02-23T19:07:17.361Z,10.81
2023-02-23T19:08:17.378Z,10.19
2023-02-23T19:09:17.369Z,10.52
2023-02-23T19:10:17.348Z,10.50
2023-02-23T19:11:17.507Z,10.94
2023-02-23T19:12:17.323Z,9.17
2023-02-23T19:13:17.331Z,9.67
2023-02-23T19:14:17.330Z,11.15
2023-02-23T19:15:17.311Z,10.49
2023-02-23T19:16:17.365Z,11.37
2023-02-23T19:17:17.349Z,9.61
2023-02-23T19:18:17.302Z,9.82
2023-02-23T19:19:17.296Z,9.82
2023-02-23T19:20:17.305Z,11.29
2023-02-23T19:21:17.326Z,10.30
2023-02-23T19:22:17.285Z,10.33
2023-02-23T19:23:17.292Z,10.11
2023-02-23T19:24:17.281Z,10.10
2023-02-23T19:25:17.247Z,10.08
2023-02-23T19:26:17.256Z,10.64
2023-02-23T19:27:17.290Z,10.14
2023-02-23T19:28:17.246Z,10.11
2023-02-23T19:29:17.230Z,10.23
2023-02-23T19:30:17.227Z,11.02
2023-02-23T19:31:17.340Z,9.64
2023-02-23T19:32:17.332Z,10.50
2023-02-23T19:33:17.401Z,11.02
2023-02-23T19:34:17.203Z,10.75
2023-02-23T19:35:17.188Z,10.38
2023-02-23T19:36:17.191Z,10.78
2023-02-23T19:37:17.210Z,10.31
2023-02-23T19:38:17.196Z,10.44
2023-02-23T19:39:17.171Z,10.50
2023-02-23T19:40:17.148Z,10.53
2023-02-23T19:41:17.200Z,9.88
2023-02-23T19:42:17.196Z,9.78
2023-02-23T19:43:17.136Z,10.21
2023-02-23T19:44:17.149Z,10.03
2023-02-23T19:45:17.121Z,10.69
2023-02-23T19:46:17.124Z,10.49
2023-02-23T19:47:17.140Z,10.43
2023-02-23T19:48:17.114Z,10.07
2023-02-23T19:49:17.170Z,10.83
2023-02-23T19:50:17.081Z,11.10
2023-02-23T19:51:17.200Z,11.08
2023-02-23T19:52:17.081Z,10.45
2023-02-23T19:53:17.106Z,10.31
2023-02-23T19:54:17.069Z,12.01
2023-02-23T19:55:17.088Z,11.07
2023-02-23T19:56:17.076Z,11.54
2023-02-23T19:57:17.058Z,11.46
2023-02-23T19:58:17.061Z,10.64
2023-02-23T19:59:17.033Z,10.38
2023-02-23T20:00:17.061Z,11.21
2023-02-23T20:01:17.121Z,11.88
2023-02-23T20:02:17.130Z,11.14
2023-02-23T20:03:17.038Z,11.08
2023-02-23T20:04:17.044Z,11.17
2023-02-23T20:05:17.099Z,11.72
2023-02-23T20:06:17.014Z,11.58
2023-02-23T20:07:17.003Z,10.89
2023-02-23T20:08:16.992Z,11.73
2023-02-23T20:09:16.989Z,10.77
2023-02-23T20:10:17.049Z,11.76
2023-02-23T20:11:16.988Z,10.86
2023-02-23T20:12:16.975Z,11.31
2023-02-23T20:13:16.944Z,10.59
2023-02-23T20:14:16.953Z,10.94
2023-02-23T20:15:16.959Z,11.73
2023-02-23T20:16:16.934Z,11.75
2023-02-23T20:17:16.928Z,10.79
2023-02-23T20:18:16.916Z,11.45
2023-02-23T20:19:16.891Z,11.11
2023-02-23T20:20:16.890Z,11.23
2023-02-23T20:21:16.934Z,11.49
2023-02-23T20:22:16.888Z,11.99
2023-02-23T20:23:16.879Z,11.08
2023-02-23T20:24:16.884Z,11.26
2023-02-23T20:25:16.837Z,11.11
2023-02-23T20:26:16.853Z,12.13
2023-02-23T20:27:16.841Z,11.70
2023-02-23T20:28:16.837Z,11.11
2023-02-23T20:29:18.981Z,11.92
2023-02-23T20:30:16.827Z,13.05
2023-02-23T20:31:16.967Z,12.30
2023-02-23T20:32:16.910Z,11.97
2023-02-23T20:33:16.835Z,12.34
2023-02-23T20:34:16.842Z,12.17
2023-02-23T20:35:16.819Z,11.11
2023-02-23T20:36:16.842Z,12.21
2023-02-23T20:37:16.866Z,11.12
2023-02-23T20:38:16.866Z,11.01
2023-02-23T20:39:16.908Z,11.54
2023-02-23T20:40:16.955Z,10.90
2023-02-23T20:41:16.957Z,11.66
2023-02-23T20:42:16.989Z,11.46
2023-02-23T20:43:17.009Z,11.06
2023-02-23T20:44:17.004Z,11.05
2023-02-23T20:45:17.033Z,11.74
2023-02-23T20:46:17.135Z,11.99
2023-02-23T20:47:17.126Z,11.39
2023-02-23T20:48:17.139Z,11.71
2023-02-23T20:49:17.124Z,12.61
2023-02-23T20:50:17.189Z,11.25
2023-02-23T20:51:17.243Z,12.23
2023-02-23T20:52:17.266Z,10.80
2023-02-23T20:53:17.289Z,11.24
2023-02-23T20:54:17.321Z,11.60
2023-02-23T20:55:17.318Z,10.68
2023-02-23T20:56:17.389Z,11.52
2023-02-23T20:57:17.397Z,11.92
2023-02-23T20:58:17.428Z,11.17
2023-02-23T20:59:17.463Z,11.53
2023-02-23T21:00:17.504Z,12.06
2023-02-23T21:01:17.722Z,10.50
2023-02-23T21:02:17.529Z,11.30
2023-02-23T21:03:17.573Z,11.74
2023-02-23T21:04:17.692Z,11.78
2023-02-23T21:05:17.622Z,11.72
2023-02-23T21:06:17.634Z,11.74
2023-02-23T21:07:17.670Z,11.49
2023-02-23T21:08:17.688Z,11.27
2023-02-23T21:09:17.740Z,12.03
2023-02-23T21:10:17.769Z,10.54
2023-02-23T21:11:17.884Z,12.07
2023-02-23T21:12:17.821Z,11.20
2023-02-23T21:13:17.848Z,11.11
2023-02-23T21:14:17.868Z,11.35
2023-02-23T21:15:17.904Z,11.28
2023-02-23T21:16:17.994Z,11.19
2023-02-23T21:17:17.939Z,11.23
2023-02-23T21:18:17.954Z,11.45
2023-02-23T21:19:17.988Z,11.08
2023-02-23T21:20:19.948Z,11.58
2023-02-23T21:21:18.513Z,12.32
2023-02-23T21:22:17.999Z,11.88
2023-02-23T21:23:17.994Z,12.40
2023-02-23T21:24:18.026Z,11.17
2023-02-23T21:25:18.008Z,11.33
2023-02-23T21:27:17.874Z,12.17
2023-02-23T21:28:17.849Z,11.41
2023-02-23T21:29:17.852Z,12.51
2023-02-23T21:30:17.850Z,11.68
2023-02-23T21:31:17.964Z,12.89
2023-02-23T21:32:17.891Z,11.77
2023-02-23T21:33:17.850Z,11.80
2023-02-23T21:34:17.825Z,11.29
2023-02-23T21:35:17.820Z,12.38
2023-02-23T21:36:17.799Z,11.87
2023-02-23T21:37:17.766Z,12.05
2023-02-23T21:38:17.774Z,12.45
2023-02-23T21:39:17.785Z,11.23
2023-02-23T21:40:17.746Z,12.11
2023-02-23T21:41:17.746Z,11.51
2023-02-23T21:42:17.736Z,11.60
2023-02-23T21:43:17.756Z,12.04
2023-02-23T21:44:17.772Z,11.40
2023-02-23T21:45:17.810Z,11.44
2023-02-23T21:46:17.778Z,11.71
2023-02-23T21:47:17.741Z,10.91
2023-02-23T21:48:17.704Z,11.75
2023-02-23T21:49:17.727Z,12.27
2023-02-23T21:50:17.739Z,11.78
2023-02-23T21:51:17.693Z,10.79
2023-02-23T21:52:17.719Z,11.90
2023-02-23T21:53:17.689Z,11.75
2023-02-23T21:54:17.711Z,11.86
2023-02-23T21:55:21.801Z,11.67
2023-02-23T21:56:17.652Z,12.07
2023-02-23T21:57:17.677Z,12.29
2023-02-23T21:58:17.646Z,12.09
2023-02-23T21:59:17.664Z,11.46
2023-02-23T22:00:17.788Z,11.99
2023-02-23T22:01:17.795Z,11.80
2023-02-23T22:02:17.640Z,12.11
2023-02-23T22:03:17.637Z,11.34
2023-02-23T22:04:17.625Z,12.13
2023-02-23T22:05:17.609Z,11.31
2023-02-23T22:06:17.607Z,11.91
2023-02-23T22:07:17.619Z,12.70
2023-02-23T22:08:17.578Z,12.48
2023-02-23T22:09:17.603Z,11.74
2023-02-23T22:10:17.607Z,12.35
2023-02-23T22:11:17.687Z,11.76
2023-02-23T22:16:17.592Z,11.69
2023-02-23T22:17:17.557Z,11.11
2023-02-23T22:18:17.523Z,11.33
2023-02-23T22:19:17.623Z,11.52
2023-02-23T22:20:17.522Z,12.50
2023-02-23T22:21:17.522Z,11.73
2023-02-23T22:22:17.495Z,11.45
2023-02-23T22:23:17.505Z,11.70
2023-02-23T22:24:17.519Z,11.81
2023-02-23T22:25:17.472Z,12.40
2023-02-23T23:17:19.066Z,10.71
